sensor_id;sensor_type;location;lat;lon;timestamp;P1;durP1;ratioP1;P2;durP2;ratioP2
39996;SDS011;25688;52.338;21.072;2023-05-13T00:02:01;22.33;;;14.38;;
39996;SDS011;25688;52.338;21.072;2023-05-13T00:04:27;35.42;;;20.55;;
39996;SDS011;25688;52.338;21.072;2023-05-13T00:06:53;34.05;;;17.88;;
39996;SDS011;25688;52.338;21.072;2023-05-13T00:09:19;32.97;;;18.13;;
39996;SDS011;25688;52.338;21.072;2023-05-13T00:11:44;29.00;;;16.10;;
39996;SDS011;25688;52.338;21.072;2023-05-13T00:14:10;25.75;;;15.00;;
39996;SDS011;25688;52.338;21.072;2023-05-13T00:16:36;26.08;;;15.15;;
39996;SDS011;25688;52.338;21.072;2023-05-13T00:19:03;21.98;;;14.27;;
39996;SDS011;25688;52.338;21.072;2023-05-13T00:21:29;22.55;;;13.20;;
39996;SDS011;25688;52.338;21.072;2023-05-13T00:23:56;25.38;;;12.93;;
39996;SDS011;25688;52.338;21.072;2023-05-13T00:26:22;22.13;;;13.20;;
39996;SDS011;25688;52.338;21.072;2023-05-13T00:28:47;25.90;;;14.10;;
39996;SDS011;25688;52.338;21.072;2023-05-13T00:31:16;23.73;;;12.65;;
39996;SDS011;25688;52.338;21.072;2023-05-13T00:33:42;25.65;;;15.50;;
39996;SDS011;25688;52.338;21.072;2023-05-13T00:36:07;29.08;;;16.45;;
39996;SDS011;25688;52.338;21.072;2023-05-13T00:38:34;28.27;;;15.75;;
39996;SDS011;25688;52.338;21.072;2023-05-13T00:41:02;23.42;;;14.55;;
39996;SDS011;25688;52.338;21.072;2023-05-13T00:43:28;28.08;;;15.23;;
39996;SDS011;25688;52.338;21.072;2023-05-13T00:45:54;29.23;;;16.00;;
39996;SDS011;25688;52.338;21.072;2023-05-13T00:48:21;32.33;;;16.10;;
39996;SDS011;25688;52.338;21.072;2023-05-13T00:50:48;24.42;;;13.75;;
39996;SDS011;25688;52.338;21.072;2023-05-13T00:53:14;20.23;;;13.85;;
39996;SDS011;25688;52.338;21.072;2023-05-13T00:55:41;19.60;;;13.63;;
39996;SDS011;25688;52.338;21.072;2023-05-13T00:58:08;25.00;;;14.55;;
39996;SDS011;25688;52.338;21.072;2023-05-13T01:00:38;25.77;;;14.35;;
39996;SDS011;25688;52.338;21.072;2023-05-13T01:03:12;25.77;;;15.90;;
39996;SDS011;25688;52.338;21.072;2023-05-13T01:08:57;26.85;;;16.55;;
39996;SDS011;25688;52.338;21.072;2023-05-13T01:11:34;24.02;;;13.15;;
39996;SDS011;25688;52.338;21.072;2023-05-13T01:14:05;19.60;;;12.82;;
39996;SDS011;25688;52.338;21.072;2023-05-13T01:16:51;20.85;;;13.30;;
39996;SDS011;25688;52.338;21.072;2023-05-13T01:19:54;22.23;;;13.40;;
39996;SDS011;25688;52.338;21.072;2023-05-13T01:22:21;140.43;;;21.08;;
39996;SDS011;25688;52.338;21.072;2023-05-13T01:24:47;21.92;;;13.30;;
39996;SDS011;25688;52.338;21.072;2023-05-13T01:27:14;23.20;;;13.77;;
39996;SDS011;25688;52.338;21.072;2023-05-13T01:29:41;20.80;;;12.65;;
39996;SDS011;25688;52.338;21.072;2023-05-13T01:32:08;42.00;;;16.58;;
39996;SDS011;25688;52.338;21.072;2023-05-13T01:34:35;260.92;;;28.00;;
39996;SDS011;25688;52.338;21.072;2023-05-13T01:37:02;35.08;;;19.95;;
39996;SDS011;25688;52.338;21.072;2023-05-13T01:39:29;47.58;;;21.58;;
39996;SDS011;25688;52.338;21.072;2023-05-13T01:41:55;42.53;;;22.23;;
39996;SDS011;25688;52.338;21.072;2023-05-13T01:44:22;37.40;;;22.08;;
39996;SDS011;25688;52.338;21.072;2023-05-13T01:46:48;40.35;;;22.70;;
39996;SDS011;25688;52.338;21.072;2023-05-13T01:49:15;42.88;;;25.25;;
39996;SDS011;25688;52.338;21.072;2023-05-13T01:51:41;51.20;;;27.27;;
39996;SDS011;25688;52.338;21.072;2023-05-13T01:54:06;56.38;;;26.92;;
39996;SDS011;25688;52.338;21.072;2023-05-13T01:56:32;51.45;;;27.15;;
39996;SDS011;25688;52.338;21.072;2023-05-13T01:58:58;60.00;;;29.38;;
39996;SDS011;25688;52.338;21.072;2023-05-13T02:01:24;52.35;;;27.73;;
39996;SDS011;25688;52.338;21.072;2023-05-13T02:03:50;57.03;;;28.40;;
39996;SDS011;25688;52.338;21.072;2023-05-13T02:06:15;59.40;;;29.08;;
39996;SDS011;25688;52.338;21.072;2023-05-13T02:08:43;58.13;;;27.88;;
39996;SDS011;25688;52.338;21.072;2023-05-13T02:11:09;54.63;;;28.38;;
39996;SDS011;25688;52.338;21.072;2023-05-13T02:13:44;59.33;;;28.30;;
39996;SDS011;25688;52.338;21.072;2023-05-13T02:16:15;46.42;;;26.65;;
39996;SDS011;25688;52.338;21.072;2023-05-13T02:18:42;42.75;;;24.80;;
39996;SDS011;25688;52.338;21.072;2023-05-13T02:21:13;43.75;;;25.65;;
39996;SDS011;25688;52.338;21.072;2023-05-13T02:23:40;44.50;;;23.23;;
39996;SDS011;25688;52.338;21.072;2023-05-13T02:26:33;53.63;;;26.98;;
39996;SDS011;25688;52.338;21.072;2023-05-13T02:29:00;45.80;;;25.40;;
39996;SDS011;25688;52.338;21.072;2023-05-13T02:31:27;51.22;;;25.73;;
39996;SDS011;25688;52.338;21.072;2023-05-13T02:33:53;46.85;;;26.85;;
39996;SDS011;25688;52.338;21.072;2023-05-13T02:36:18;49.22;;;26.52;;
39996;SDS011;25688;52.338;21.072;2023-05-13T02:38:45;48.78;;;25.00;;
39996;SDS011;25688;52.338;21.072;2023-05-13T02:41:11;53.13;;;27.38;;
39996;SDS011;25688;52.338;21.072;2023-05-13T02:43:36;50.28;;;27.35;;
39996;SDS011;25688;52.338;21.072;2023-05-13T02:46:03;46.53;;;25.15;;
39996;SDS011;25688;52.338;21.072;2023-05-13T02:48:29;48.90;;;27.40;;
39996;SDS011;25688;52.338;21.072;2023-05-13T02:50:55;50.97;;;26.42;;
39996;SDS011;25688;52.338;21.072;2023-05-13T02:53:20;53.15;;;26.27;;
39996;SDS011;25688;52.338;21.072;2023-05-13T02:55:47;51.72;;;28.27;;
39996;SDS011;25688;52.338;21.072;2023-05-13T02:58:12;49.88;;;26.88;;
39996;SDS011;25688;52.338;21.072;2023-05-13T03:00:38;44.67;;;25.55;;
39996;SDS011;25688;52.338;21.072;2023-05-13T03:03:04;50.78;;;26.60;;
39996;SDS011;25688;52.338;21.072;2023-05-13T03:05:30;46.47;;;25.33;;
39996;SDS011;25688;52.338;21.072;2023-05-13T03:07:55;46.83;;;25.13;;
39996;SDS011;25688;52.338;21.072;2023-05-13T03:10:22;47.47;;;24.73;;
39996;SDS011;25688;52.338;21.072;2023-05-13T03:12:48;46.53;;;24.67;;
39996;SDS011;25688;52.338;21.072;2023-05-13T03:15:15;46.92;;;25.35;;
39996;SDS011;25688;52.338;21.072;2023-05-13T03:20:35;49.15;;;27.40;;
39996;SDS011;25688;52.338;21.072;2023-05-13T03:23:01;44.63;;;26.10;;
39996;SDS011;25688;52.338;21.072;2023-05-13T03:25:28;47.53;;;27.90;;
39996;SDS011;25688;52.338;21.072;2023-05-13T03:27:57;49.03;;;27.20;;
39996;SDS011;25688;52.338;21.072;2023-05-13T03:30:22;52.92;;;27.15;;
39996;SDS011;25688;52.338;21.072;2023-05-13T03:32:48;53.97;;;28.92;;
39996;SDS011;25688;52.338;21.072;2023-05-13T03:35:14;53.08;;;27.02;;
39996;SDS011;25688;52.338;21.072;2023-05-13T03:37:40;45.53;;;25.52;;
39996;SDS011;25688;52.338;21.072;2023-05-13T03:40:06;42.22;;;24.40;;
39996;SDS011;25688;52.338;21.072;2023-05-13T03:42:32;43.92;;;25.75;;
39996;SDS011;25688;52.338;21.072;2023-05-13T03:44:57;47.85;;;25.75;;
39996;SDS011;25688;52.338;21.072;2023-05-13T03:47:23;49.55;;;27.05;;
39996;SDS011;25688;52.338;21.072;2023-05-13T03:49:49;52.05;;;28.15;;
39996;SDS011;25688;52.338;21.072;2023-05-13T03:52:15;49.78;;;27.15;;
39996;SDS011;25688;52.338;21.072;2023-05-13T03:54:43;55.20;;;25.98;;
39996;SDS011;25688;52.338;21.072;2023-05-13T03:57:09;46.05;;;26.75;;
39996;SDS011;25688;52.338;21.072;2023-05-13T03:59:34;48.42;;;28.45;;
39996;SDS011;25688;52.338;21.072;2023-05-13T04:02:00;47.30;;;27.10;;
39996;SDS011;25688;52.338;21.072;2023-05-13T04:04:26;49.20;;;26.92;;
39996;SDS011;25688;52.338;21.072;2023-05-13T04:06:51;47.47;;;27.88;;
39996;SDS011;25688;52.338;21.072;2023-05-13T04:09:17;49.22;;;25.70;;
39996;SDS011;25688;52.338;21.072;2023-05-13T04:11:43;46.45;;;25.88;;
39996;SDS011;25688;52.338;21.072;2023-05-13T04:14:08;48.58;;;24.85;;
39996;SDS011;25688;52.338;21.072;2023-05-13T04:16:34;43.28;;;26.48;;
39996;SDS011;25688;52.338;21.072;2023-05-13T04:19:00;45.60;;;27.10;;
39996;SDS011;25688;52.338;21.072;2023-05-13T04:21:27;43.75;;;26.00;;
39996;SDS011;25688;52.338;21.072;2023-05-13T04:23:52;42.92;;;25.75;;
39996;SDS011;25688;52.338;21.072;2023-05-13T04:26:18;43.38;;;25.98;;
39996;SDS011;25688;52.338;21.072;2023-05-13T04:28:45;44.30;;;26.58;;
39996;SDS011;25688;52.338;21.072;2023-05-13T04:31:11;48.45;;;26.48;;
39996;SDS011;25688;52.338;21.072;2023-05-13T04:33:37;47.25;;;25.52;;
39996;SDS011;25688;52.338;21.072;2023-05-13T04:36:02;42.55;;;25.73;;
39996;SDS011;25688;52.338;21.072;2023-05-13T04:38:29;45.35;;;25.80;;
39996;SDS011;25688;52.338;21.072;2023-05-13T04:40:55;42.53;;;25.15;;
39996;SDS011;25688;52.338;21.072;2023-05-13T04:43:21;41.50;;;23.80;;
39996;SDS011;25688;52.338;21.072;2023-05-13T04:45:47;39.78;;;22.65;;
39996;SDS011;25688;52.338;21.072;2023-05-13T04:48:27;34.28;;;21.45;;
39996;SDS011;25688;52.338;21.072;2023-05-13T04:50:52;38.47;;;21.90;;
39996;SDS011;25688;52.338;21.072;2023-05-13T04:53:18;34.97;;;21.27;;
39996;SDS011;25688;52.338;21.072;2023-05-13T04:55:45;34.40;;;21.50;;
39996;SDS011;25688;52.338;21.072;2023-05-13T04:58:12;33.42;;;20.67;;
39996;SDS011;25688;52.338;21.072;2023-05-13T05:00:38;36.05;;;20.08;;
39996;SDS011;25688;52.338;21.072;2023-05-13T05:03:04;31.63;;;19.90;;
39996;SDS011;25688;52.338;21.072;2023-05-13T05:05:29;33.28;;;19.88;;
39996;SDS011;25688;52.338;21.072;2023-05-13T05:07:55;30.85;;;18.25;;
39996;SDS011;25688;52.338;21.072;2023-05-13T05:10:22;34.95;;;19.52;;
39996;SDS011;25688;52.338;21.072;2023-05-13T05:13:06;31.17;;;17.27;;
39996;SDS011;25688;52.338;21.072;2023-05-13T05:15:33;31.70;;;17.33;;
39996;SDS011;25688;52.338;21.072;2023-05-13T05:17:58;26.60;;;16.88;;
39996;SDS011;25688;52.338;21.072;2023-05-13T05:20:24;24.42;;;16.63;;
39996;SDS011;25688;52.338;21.072;2023-05-13T05:22:50;25.30;;;15.88;;
39996;SDS011;25688;52.338;21.072;2023-05-13T05:25:16;28.55;;;14.88;;
39996;SDS011;25688;52.338;21.072;2023-05-13T05:27:42;22.40;;;14.25;;
39996;SDS011;25688;52.338;21.072;2023-05-13T05:30:08;24.08;;;14.73;;
39996;SDS011;25688;52.338;21.072;2023-05-13T05:32:35;24.85;;;13.88;;
39996;SDS011;25688;52.338;21.072;2023-05-13T05:35:00;24.40;;;14.43;;
39996;SDS011;25688;52.338;21.072;2023-05-13T05:37:28;19.92;;;13.05;;
39996;SDS011;25688;52.338;21.072;2023-05-13T05:39:54;19.75;;;12.45;;
39996;SDS011;25688;52.338;21.072;2023-05-13T05:42:20;16.45;;;11.07;;
39996;SDS011;25688;52.338;21.072;2023-05-13T05:44:46;19.27;;;12.27;;
39996;SDS011;25688;52.338;21.072;2023-05-13T05:47:11;28.95;;;13.50;;
39996;SDS011;25688;52.338;21.072;2023-05-13T05:49:37;23.92;;;12.30;;
39996;SDS011;25688;52.338;21.072;2023-05-13T05:52:04;19.90;;;12.40;;
39996;SDS011;25688;52.338;21.072;2023-05-13T05:54:32;18.33;;;12.45;;
39996;SDS011;25688;52.338;21.072;2023-05-13T05:56:58;18.23;;;11.38;;
39996;SDS011;25688;52.338;21.072;2023-05-13T05:59:25;16.15;;;11.00;;
39996;SDS011;25688;52.338;21.072;2023-05-13T06:01:50;22.52;;;11.48;;
39996;SDS011;25688;52.338;21.072;2023-05-13T06:04:16;16.40;;;10.13;;
39996;SDS011;25688;52.338;21.072;2023-05-13T06:06:42;17.92;;;10.63;;
39996;SDS011;25688;52.338;21.072;2023-05-13T06:09:07;18.15;;;10.88;;
39996;SDS011;25688;52.338;21.072;2023-05-13T06:11:33;15.20;;;9.80;;
39996;SDS011;25688;52.338;21.072;2023-05-13T06:13:59;18.50;;;9.60;;
39996;SDS011;25688;52.338;21.072;2023-05-13T06:16:25;15.70;;;9.82;;
39996;SDS011;25688;52.338;21.072;2023-05-13T06:18:50;16.50;;;9.95;;
39996;SDS011;25688;52.338;21.072;2023-05-13T06:21:16;18.08;;;10.07;;
39996;SDS011;25688;52.338;21.072;2023-05-13T06:23:42;17.50;;;10.05;;
39996;SDS011;25688;52.338;21.072;2023-05-13T06:26:07;20.00;;;10.18;;
39996;SDS011;25688;52.338;21.072;2023-05-13T06:28:33;17.33;;;9.63;;
39996;SDS011;25688;52.338;21.072;2023-05-13T06:30:59;15.65;;;9.95;;
39996;SDS011;25688;52.338;21.072;2023-05-13T06:33:24;18.75;;;9.40;;
39996;SDS011;25688;52.338;21.072;2023-05-13T06:35:51;24.33;;;10.15;;
39996;SDS011;25688;52.338;21.072;2023-05-13T06:38:17;15.30;;;9.25;;
39996;SDS011;25688;52.338;21.072;2023-05-13T06:40:43;15.98;;;8.73;;
39996;SDS011;25688;52.338;21.072;2023-05-13T06:43:18;12.70;;;8.75;;
39996;SDS011;25688;52.338;21.072;2023-05-13T06:45:43;13.27;;;8.20;;
39996;SDS011;25688;52.338;21.072;2023-05-13T06:48:09;14.57;;;8.15;;
39996;SDS011;25688;52.338;21.072;2023-05-13T06:50:35;15.15;;;8.10;;
39996;SDS011;25688;52.338;21.072;2023-05-13T06:53:00;19.60;;;8.50;;
39996;SDS011;25688;52.338;21.072;2023-05-13T06:55:26;17.33;;;8.25;;
39996;SDS011;25688;52.338;21.072;2023-05-13T06:57:52;19.90;;;8.35;;
39996;SDS011;25688;52.338;21.072;2023-05-13T07:00:17;15.02;;;8.60;;
39996;SDS011;25688;52.338;21.072;2023-05-13T07:02:43;15.90;;;7.75;;
39996;SDS011;25688;52.338;21.072;2023-05-13T07:05:10;13.48;;;6.63;;
39996;SDS011;25688;52.338;21.072;2023-05-13T07:07:36;12.38;;;7.07;;
39996;SDS011;25688;52.338;21.072;2023-05-13T07:10:02;15.55;;;7.32;;
39996;SDS011;25688;52.338;21.072;2023-05-13T07:12:27;12.02;;;6.88;;
39996;SDS011;25688;52.338;21.072;2023-05-13T07:14:53;11.05;;;6.47;;
39996;SDS011;25688;52.338;21.072;2023-05-13T07:17:19;10.73;;;6.47;;
39996;SDS011;25688;52.338;21.072;2023-05-13T07:19:45;12.05;;;5.60;;
39996;SDS011;25688;52.338;21.072;2023-05-13T07:22:11;16.58;;;6.20;;
39996;SDS011;25688;52.338;21.072;2023-05-13T07:24:37;12.07;;;6.47;;
39996;SDS011;25688;52.338;21.072;2023-05-13T07:27:02;11.30;;;5.82;;
39996;SDS011;25688;52.338;21.072;2023-05-13T07:29:29;13.43;;;6.00;;
39996;SDS011;25688;52.338;21.072;2023-05-13T07:31:56;15.38;;;6.03;;
39996;SDS011;25688;52.338;21.072;2023-05-13T07:34:22;10.32;;;5.50;;
39996;SDS011;25688;52.338;21.072;2023-05-13T07:36:47;8.75;;;5.35;;
39996;SDS011;25688;52.338;21.072;2023-05-13T07:39:13;12.52;;;6.70;;
39996;SDS011;25688;52.338;21.072;2023-05-13T07:41:39;9.55;;;5.35;;
39996;SDS011;25688;52.338;21.072;2023-05-13T07:44:04;12.18;;;6.30;;
39996;SDS011;25688;52.338;21.072;2023-05-13T07:46:35;11.52;;;5.80;;
39996;SDS011;25688;52.338;21.072;2023-05-13T07:49:01;10.75;;;5.82;;
39996;SDS011;25688;52.338;21.072;2023-05-13T07:51:30;9.57;;;5.75;;
39996;SDS011;25688;52.338;21.072;2023-05-13T07:53:56;10.82;;;5.20;;
39996;SDS011;25688;52.338;21.072;2023-05-13T07:56:22;9.55;;;5.38;;
39996;SDS011;25688;52.338;21.072;2023-05-13T07:58:48;11.95;;;5.22;;
39996;SDS011;25688;52.338;21.072;2023-05-13T08:01:14;9.90;;;5.20;;
39996;SDS011;25688;52.338;21.072;2023-05-13T08:03:40;8.93;;;4.75;;
39996;SDS011;25688;52.338;21.072;2023-05-13T08:06:06;7.57;;;4.72;;
39996;SDS011;25688;52.338;21.072;2023-05-13T08:08:32;8.90;;;4.55;;
39996;SDS011;25688;52.338;21.072;2023-05-13T08:10:58;9.77;;;4.47;;
39996;SDS011;25688;52.338;21.072;2023-05-13T08:13:23;9.32;;;4.80;;
39996;SDS011;25688;52.338;21.072;2023-05-13T08:15:49;8.77;;;5.28;;
39996;SDS011;25688;52.338;21.072;2023-05-13T08:18:16;8.68;;;4.18;;
39996;SDS011;25688;52.338;21.072;2023-05-13T08:20:51;9.52;;;5.18;;
39996;SDS011;25688;52.338;21.072;2023-05-13T08:23:16;9.63;;;4.82;;
39996;SDS011;25688;52.338;21.072;2023-05-13T08:25:45;8.02;;;4.50;;
39996;SDS011;25688;52.338;21.072;2023-05-13T08:28:11;10.13;;;4.53;;
39996;SDS011;25688;52.338;21.072;2023-05-13T08:30:37;7.30;;;4.70;;
39996;SDS011;25688;52.338;21.072;2023-05-13T08:33:06;7.88;;;4.40;;
39996;SDS011;25688;52.338;21.072;2023-05-13T08:35:32;11.23;;;4.45;;
39996;SDS011;25688;52.338;21.072;2023-05-13T08:37:58;8.05;;;4.20;;
39996;SDS011;25688;52.338;21.072;2023-05-13T08:40:23;5.40;;;3.72;;
39996;SDS011;25688;52.338;21.072;2023-05-13T08:42:49;7.57;;;4.10;;
39996;SDS011;25688;52.338;21.072;2023-05-13T08:45:16;7.38;;;3.80;;
39996;SDS011;25688;52.338;21.072;2023-05-13T08:50:21;6.30;;;3.50;;
39996;SDS011;25688;52.338;21.072;2023-05-13T08:52:49;5.32;;;3.08;;
39996;SDS011;25688;52.338;21.072;2023-05-13T08:55:17;6.43;;;3.38;;
39996;SDS011;25688;52.338;21.072;2023-05-13T08:57:46;5.82;;;3.60;;
39996;SDS011;25688;52.338;21.072;2023-05-13T09:00:15;10.38;;;4.05;;
39996;SDS011;25688;52.338;21.072;2023-05-13T09:02:41;9.85;;;3.50;;
39996;SDS011;25688;52.338;21.072;2023-05-13T09:05:08;5.18;;;3.38;;
39996;SDS011;25688;52.338;21.072;2023-05-13T09:07:34;6.03;;;3.55;;
39996;SDS011;25688;52.338;21.072;2023-05-13T09:10:04;6.82;;;3.10;;
39996;SDS011;25688;52.338;21.072;2023-05-13T09:12:40;5.22;;;3.25;;
39996;SDS011;25688;52.338;21.072;2023-05-13T09:15:17;7.70;;;3.55;;
39996;SDS011;25688;52.338;21.072;2023-05-13T09:17:53;8.40;;;3.75;;
39996;SDS011;25688;52.338;21.072;2023-05-13T09:20:22;7.20;;;3.78;;
39996;SDS011;25688;52.338;21.072;2023-05-13T09:22:54;6.15;;;3.28;;
39996;SDS011;25688;52.338;21.072;2023-05-13T09:25:22;5.55;;;3.05;;
39996;SDS011;25688;52.338;21.072;2023-05-13T09:27:50;7.20;;;3.33;;
39996;SDS011;25688;52.338;21.072;2023-05-13T09:30:31;11.03;;;3.33;;
39996;SDS011;25688;52.338;21.072;2023-05-13T09:33:11;6.78;;;3.00;;
39996;SDS011;25688;52.338;21.072;2023-05-13T09:35:41;9.02;;;3.05;;
39996;SDS011;25688;52.338;21.072;2023-05-13T09:38:12;6.80;;;2.85;;
39996;SDS011;25688;52.338;21.072;2023-05-13T09:40:48;5.07;;;2.45;;
39996;SDS011;25688;52.338;21.072;2023-05-13T09:43:25;6.80;;;2.55;;
39996;SDS011;25688;52.338;21.072;2023-05-13T09:45:55;4.63;;;2.35;;
39996;SDS011;25688;52.338;21.072;2023-05-13T09:48:25;6.63;;;2.22;;
39996;SDS011;25688;52.338;21.072;2023-05-13T09:50:52;5.93;;;2.25;;
39996;SDS011;25688;52.338;21.072;2023-05-13T09:53:19;7.68;;;2.80;;
39996;SDS011;25688;52.338;21.072;2023-05-13T09:55:45;6.80;;;3.00;;
39996;SDS011;25688;52.338;21.072;2023-05-13T09:58:12;8.55;;;3.00;;
39996;SDS011;25688;52.338;21.072;2023-05-13T10:00:39;7.78;;;2.70;;
39996;SDS011;25688;52.338;21.072;2023-05-13T10:03:06;4.90;;;2.00;;
39996;SDS011;25688;52.338;21.072;2023-05-13T10:05:51;7.88;;;2.70;;
39996;SDS011;25688;52.338;21.072;2023-05-13T10:08:17;5.32;;;2.40;;
39996;SDS011;25688;52.338;21.072;2023-05-13T10:10:43;8.98;;;2.63;;
39996;SDS011;25688;52.338;21.072;2023-05-13T10:13:15;4.72;;;2.25;;
39996;SDS011;25688;52.338;21.072;2023-05-13T10:15:51;4.82;;;2.15;;
39996;SDS011;25688;52.338;21.072;2023-05-13T10:18:18;4.55;;;2.30;;
39996;SDS011;25688;52.338;21.072;2023-05-13T10:20:49;7.30;;;2.95;;
39996;SDS011;25688;52.338;21.072;2023-05-13T10:23:17;5.53;;;2.63;;
39996;SDS011;25688;52.338;21.072;2023-05-13T10:25:53;6.13;;;3.03;;
39996;SDS011;25688;52.338;21.072;2023-05-13T10:28:22;8.60;;;2.90;;
39996;SDS011;25688;52.338;21.072;2023-05-13T10:30:50;6.07;;;2.58;;
39996;SDS011;25688;52.338;21.072;2023-05-13T10:33:16;5.03;;;2.35;;
39996;SDS011;25688;52.338;21.072;2023-05-13T10:35:45;5.80;;;2.80;;
39996;SDS011;25688;52.338;21.072;2023-05-13T10:41:50;4.78;;;2.20;;
39996;SDS011;25688;52.338;21.072;2023-05-13T10:44:50;5.88;;;2.53;;
39996;SDS011;25688;52.338;21.072;2023-05-13T10:47:21;5.70;;;2.38;;
39996;SDS011;25688;52.338;21.072;2023-05-13T10:49:50;5.55;;;2.50;;
39996;SDS011;25688;52.338;21.072;2023-05-13T10:52:22;5.32;;;2.60;;
39996;SDS011;25688;52.338;21.072;2023-05-13T10:55:03;5.97;;;3.13;;
39996;SDS011;25688;52.338;21.072;2023-05-13T10:58:04;6.25;;;2.42;;
39996;SDS011;25688;52.338;21.072;2023-05-13T11:00:33;5.47;;;2.60;;
39996;SDS011;25688;52.338;21.072;2023-05-13T11:03:07;6.18;;;3.10;;
39996;SDS011;25688;52.338;21.072;2023-05-13T11:08:42;5.00;;;2.30;;
39996;SDS011;25688;52.338;21.072;2023-05-13T11:11:19;4.38;;;2.30;;
39996;SDS011;25688;52.338;21.072;2023-05-13T11:16:20;5.88;;;2.60;;
39996;SDS011;25688;52.338;21.072;2023-05-13T11:18:51;4.03;;;2.50;;
39996;SDS011;25688;52.338;21.072;2023-05-13T11:21:17;6.93;;;2.70;;
39996;SDS011;25688;52.338;21.072;2023-05-13T11:23:58;5.47;;;2.38;;
39996;SDS011;25688;52.338;21.072;2023-05-13T11:26:40;9.52;;;2.78;;
39996;SDS011;25688;52.338;21.072;2023-05-13T11:29:14;6.70;;;2.50;;
39996;SDS011;25688;52.338;21.072;2023-05-13T11:31:50;5.70;;;2.72;;
39996;SDS011;25688;52.338;21.072;2023-05-13T11:34:21;4.50;;;2.20;;
39996;SDS011;25688;52.338;21.072;2023-05-13T11:37:05;5.32;;;3.08;;
39996;SDS011;25688;52.338;21.072;2023-05-13T11:39:35;5.57;;;2.60;;
39996;SDS011;25688;52.338;21.072;2023-05-13T11:44:59;4.93;;;2.25;;
39996;SDS011;25688;52.338;21.072;2023-05-13T11:47:26;4.80;;;2.30;;
39996;SDS011;25688;52.338;21.072;2023-05-13T11:49:52;5.57;;;2.42;;
39996;SDS011;25688;52.338;21.072;2023-05-13T11:52:18;4.93;;;2.08;;
39996;SDS011;25688;52.338;21.072;2023-05-13T11:54:46;7.63;;;2.30;;
39996;SDS011;25688;52.338;21.072;2023-05-13T11:57:26;7.13;;;2.50;;
39996;SDS011;25688;52.338;21.072;2023-05-13T11:59:57;8.25;;;2.25;;
39996;SDS011;25688;52.338;21.072;2023-05-13T12:02:31;6.03;;;2.35;;
39996;SDS011;25688;52.338;21.072;2023-05-13T12:05:09;4.95;;;2.00;;
39996;SDS011;25688;52.338;21.072;2023-05-13T12:07:36;6.30;;;2.50;;
39996;SDS011;25688;52.338;21.072;2023-05-13T12:10:03;5.10;;;2.20;;
39996;SDS011;25688;52.338;21.072;2023-05-13T12:12:31;5.53;;;2.58;;
39996;SDS011;25688;52.338;21.072;2023-05-13T12:14:59;6.22;;;2.22;;
39996;SDS011;25688;52.338;21.072;2023-05-13T12:17:27;5.57;;;2.83;;
39996;SDS011;25688;52.338;21.072;2023-05-13T12:22:50;7.15;;;2.70;;
39996;SDS011;25688;52.338;21.072;2023-05-13T12:30:57;6.72;;;2.50;;
39996;SDS011;25688;52.338;21.072;2023-05-13T12:33:29;5.30;;;2.28;;
39996;SDS011;25688;52.338;21.072;2023-05-13T12:41:34;4.10;;;2.30;;
39996;SDS011;25688;52.338;21.072;2023-05-13T12:44:01;4.93;;;2.50;;
39996;SDS011;25688;52.338;21.072;2023-05-13T12:46:28;3.70;;;2.10;;
39996;SDS011;25688;52.338;21.072;2023-05-13T12:48:55;4.57;;;2.47;;
39996;SDS011;25688;52.338;21.072;2023-05-13T12:51:22;7.30;;;2.40;;
39996;SDS011;25688;52.338;21.072;2023-05-13T12:53:48;4.60;;;2.80;;
39996;SDS011;25688;52.338;21.072;2023-05-13T12:56:14;5.35;;;2.20;;
39996;SDS011;25688;52.338;21.072;2023-05-13T12:58:39;8.75;;;2.35;;
39996;SDS011;25688;52.338;21.072;2023-05-13T13:01:05;11.02;;;2.75;;
39996;SDS011;25688;52.338;21.072;2023-05-13T13:03:31;5.15;;;2.30;;
39996;SDS011;25688;52.338;21.072;2023-05-13T13:05:57;7.68;;;2.88;;
39996;SDS011;25688;52.338;21.072;2023-05-13T13:08:23;7.18;;;2.10;;
39996;SDS011;25688;52.338;21.072;2023-05-13T13:10:49;4.90;;;2.13;;
39996;SDS011;25688;52.338;21.072;2023-05-13T13:13:15;3.80;;;2.30;;
39996;SDS011;25688;52.338;21.072;2023-05-13T13:15:43;4.68;;;2.35;;
39996;SDS011;25688;52.338;21.072;2023-05-13T13:18:09;7.10;;;2.28;;
39996;SDS011;25688;52.338;21.072;2023-05-13T13:20:35;3.95;;;2.05;;
39996;SDS011;25688;52.338;21.072;2023-05-13T13:23:01;8.13;;;2.78;;
39996;SDS011;25688;52.338;21.072;2023-05-13T13:25:27;4.47;;;2.30;;
39996;SDS011;25688;52.338;21.072;2023-05-13T13:27:53;5.13;;;2.00;;
39996;SDS011;25688;52.338;21.072;2023-05-13T13:30:19;4.00;;;2.10;;
39996;SDS011;25688;52.338;21.072;2023-05-13T13:32:45;4.63;;;2.10;;
39996;SDS011;25688;52.338;21.072;2023-05-13T13:35:10;6.97;;;2.17;;
39996;SDS011;25688;52.338;21.072;2023-05-13T13:37:36;5.55;;;2.55;;
39996;SDS011;25688;52.338;21.072;2023-05-13T13:40:02;5.10;;;2.40;;
39996;SDS011;25688;52.338;21.072;2023-05-13T13:42:27;5.88;;;2.13;;
39996;SDS011;25688;52.338;21.072;2023-05-13T13:44:53;5.22;;;2.10;;
39996;SDS011;25688;52.338;21.072;2023-05-13T13:47:22;6.95;;;2.20;;
39996;SDS011;25688;52.338;21.072;2023-05-13T13:49:57;5.15;;;2.20;;
39996;SDS011;25688;52.338;21.072;2023-05-13T13:52:34;5.65;;;2.50;;
39996;SDS011;25688;52.338;21.072;2023-05-13T13:54:59;7.18;;;2.80;;
39996;SDS011;25688;52.338;21.072;2023-05-13T13:57:28;6.30;;;2.90;;
39996;SDS011;25688;52.338;21.072;2023-05-13T13:59:54;5.38;;;2.22;;
39996;SDS011;25688;52.338;21.072;2023-05-13T14:02:20;5.35;;;2.88;;
39996;SDS011;25688;52.338;21.072;2023-05-13T14:04:46;6.63;;;2.78;;
39996;SDS011;25688;52.338;21.072;2023-05-13T14:07:11;5.30;;;2.60;;
39996;SDS011;25688;52.338;21.072;2023-05-13T14:09:37;5.80;;;2.70;;
39996;SDS011;25688;52.338;21.072;2023-05-13T14:12:03;7.70;;;2.80;;
39996;SDS011;25688;52.338;21.072;2023-05-13T14:14:29;7.53;;;2.33;;
39996;SDS011;25688;52.338;21.072;2023-05-13T14:16:55;6.88;;;2.30;;
39996;SDS011;25688;52.338;21.072;2023-05-13T14:19:20;6.10;;;2.92;;
39996;SDS011;25688;52.338;21.072;2023-05-13T14:21:46;4.05;;;2.13;;
39996;SDS011;25688;52.338;21.072;2023-05-13T14:24:12;6.30;;;2.00;;
39996;SDS011;25688;52.338;21.072;2023-05-13T14:26:38;4.47;;;2.25;;
39996;SDS011;25688;52.338;21.072;2023-05-13T14:29:03;6.55;;;1.80;;
39996;SDS011;25688;52.338;21.072;2023-05-13T14:31:29;6.03;;;1.80;;
39996;SDS011;25688;52.338;21.072;2023-05-13T14:33:55;7.65;;;2.22;;
39996;SDS011;25688;52.338;21.072;2023-05-13T14:36:21;5.68;;;2.35;;
39996;SDS011;25688;52.338;21.072;2023-05-13T14:38:48;4.38;;;2.20;;
39996;SDS011;25688;52.338;21.072;2023-05-13T14:41:13;6.68;;;2.55;;
39996;SDS011;25688;52.338;21.072;2023-05-13T14:43:44;4.47;;;2.10;;
39996;SDS011;25688;52.338;21.072;2023-05-13T14:46:10;5.20;;;3.13;;
39996;SDS011;25688;52.338;21.072;2023-05-13T14:48:37;5.63;;;2.72;;
39996;SDS011;25688;52.338;21.072;2023-05-13T14:51:03;9.20;;;3.20;;
39996;SDS011;25688;52.338;21.072;2023-05-13T14:53:28;4.97;;;2.53;;
39996;SDS011;25688;52.338;21.072;2023-05-13T14:55:54;5.38;;;2.30;;
39996;SDS011;25688;52.338;21.072;2023-05-13T14:58:20;5.15;;;2.20;;
39996;SDS011;25688;52.338;21.072;2023-05-13T15:00:46;3.65;;;2.20;;